aviador You're here:

LTCJ Decoded Metar

BATMAN in TURKEY
Report Time2018-01-17 17:50:00
UTC Time2018-01-17 18:16:55
Flight Rules mvfr MVFR
Wind020° at 03 kt
W.Decomp.*RWY 02: 3.0 kt HW 0.2 kt LCW
W.Rank020° ranks 2
Current wind is below 020° avg. (5.4)
Visibility7000 m
Phenomena:Light Rain
Clouds:Broken 030 Hf
Overcast 080 Hf
Ceiling3,000 ft
Temp05°C (ISA -6)
Dew Point05°C (100% RH)
AAT2.8°C
QNH1015 hPa
Density Alt1,050 ft
Elevation1,772 ft
Report Wrong Elevation
Raw Report
LTCJ 171750Z 02003KT 7000 -RA BKN030 OVC080 05/05 Q1015=

Extra information for LTCJ:More info

Metar Taf Metar & Taf Last 4 Metars F.Rules Stats Wind Profile Meteogram Temp Stats Airport Information Weather charts Add Link Nearby VenuesMetar ALERT Operation Metar Decoded Social comments